Time;durP1;ratioP1;P1;durP2;ratioP2;P2;SDS_P1;SDS_P2;PMS_P1;PMS_P2;Temp;Humidity;BMP_temperature;BMP_pressure;BME280_temperature;BME280_humidity;BME280_pressure;Samples;Min_cycle;Max_cycle;Signal;HPM_P1;HPM_P2
2022/09/11 00:00:42;;;;;;;17.52;10.73;;;13.90;99.90;;;;;;5075122;28;20052;-70
2022/09/11 00:03:08;;;;;;;15.73;10.18;;;13.90;99.90;;;;;;5074439;28;20121;-70
2022/09/11 00:05:39;;;;;;;15.68;10.68;;;13.90;99.90;;;;;;5057299;28;20071;-70
2022/09/11 00:08:07;;;;;;;15.00;10.05;;;13.80;99.90;;;;;;5056888;28;20499;-70
2022/09/11 00:10:36;;;;;;;18.27;11.27;;;13.70;99.90;;;;;;5074758;28;20378;-70
2022/09/11 00:13:03;;;;;;;18.35;11.43;;;13.70;99.90;;;;;;5073610;28;20401;-70
2022/09/11 00:15:28;;;;;;;15.98;10.10;;;13.70;99.90;;;;;;5073149;28;20109;-70
2022/09/11 00:17:55;;;;;;;47.97;12.82;;;13.70;99.90;;;;;;5074336;28;20050;-70
2022/09/11 00:20:22;;;;;;;39.83;11.48;;;13.60;99.90;;;;;;5074286;28;20051;-70
2022/09/11 00:22:48;;;;;;;59.17;11.75;;;13.50;99.90;;;;;;5074057;28;20178;-70
2022/09/11 00:25:13;;;;;;;42.65;11.68;;;13.40;99.90;;;;;;5072965;28;20052;-70
2022/09/11 00:27:39;;;;;;;18.73;9.85;;;13.30;99.90;;;;;;5074666;28;20045;-70
2022/09/11 00:30:05;;;;;;;20.73;10.18;;;13.30;99.90;;;;;;5073837;28;20048;-70
2022/09/11 00:32:32;;;;;;;14.75;10.25;;;13.30;99.90;;;;;;5074011;28;20044;-70
2022/09/11 00:34:58;;;;;;;14.18;9.65;;;13.30;99.90;;;;;;5072499;28;20590;-70
2022/09/11 00:37:23;;;;;;;15.65;10.80;;;13.30;99.90;;;;;;5074793;28;20155;-70
2022/09/11 00:39:49;;;;;;;17.05;10.70;;;13.30;99.90;;;;;;5073850;28;20131;-70
2022/09/11 00:42:15;;;;;;;17.13;11.18;;;13.20;99.90;;;;;;5073833;28;20110;-70
2022/09/11 00:44:40;;;;;;;18.98;11.48;;;13.20;99.90;;;;;;5074120;28;20553;-70
2022/09/11 00:47:08;;;;;;;19.45;11.00;;;13.20;99.90;;;;;;5073739;28;20041;-70
2022/09/11 00:49:41;;;;;;;18.35;11.88;;;13.20;99.90;;;;;;5072687;28;20041;-70
2022/09/11 00:52:21;;;;;;;18.38;11.23;;;13.20;99.90;;;;;;5073695;28;20056;-71
2022/09/11 00:55:03;;;;;;;16.80;10.38;;;13.20;99.90;;;;;;5074508;28;20040;-70
2022/09/11 00:57:32;;;;;;;18.65;10.65;;;13.20;99.90;;;;;;5073986;28;20044;-70
2022/09/11 00:59:59;;;;;;;16.35;10.85;;;13.20;99.90;;;;;;5073458;28;20044;-70
2022/09/11 01:02:27;;;;;;;17.80;11.52;;;13.20;99.90;;;;;;5073620;28;20396;-70
2022/09/11 01:04:54;;;;;;;15.25;9.93;;;13.20;99.90;;;;;;5074072;28;20394;-70
2022/09/11 01:07:21;;;;;;;16.05;10.25;;;13.20;99.90;;;;;;5074069;28;20060;-70
2022/09/11 01:09:48;;;;;;;15.27;10.52;;;13.10;99.90;;;;;;5072264;28;20040;-70
2022/09/11 01:12:26;;;;;;;17.80;11.02;;;13.10;99.90;;;;;;5073991;28;20397;-70
2022/09/11 01:15:02;;;;;;;17.52;10.75;;;13.10;99.90;;;;;;5073922;28;20047;-70
2022/09/11 01:18:15;;;;;;;16.30;10.35;;;13.10;99.90;;;;;;5072580;28;20037;-70
2022/09/11 01:20:59;;;;;;;15.48;9.98;;;13.10;99.90;;;;;;5072731;28;20053;-70
2022/09/11 01:23:53;;;;;;;17.35;9.85;;;13.00;99.90;;;;;;5073678;28;20135;-70
2022/09/11 01:26:33;;;;;;;16.27;10.82;;;13.00;99.90;;;;;;5073564;28;20048;-70
2022/09/11 01:29:28;;;;;;;17.65;10.23;;;13.00;99.90;;;;;;5073661;28;20044;-70
2022/09/11 01:32:12;;;;;;;16.40;10.15;;;12.90;99.90;;;;;;5068660;28;20063;-70
2022/09/11 01:34:55;;;;;;;17.48;11.55;;;12.90;99.90;;;;;;5072982;28;20489;-70
2022/09/11 01:37:38;;;;;;;16.73;10.52;;;12.90;99.90;;;;;;5073251;28;20044;-70
2022/09/11 01:40:12;;;;;;;16.77;11.32;;;13.00;99.90;;;;;;5073187;28;20052;-70
2022/09/11 01:42:43;;;;;;;24.38;10.40;;;13.00;99.90;;;;;;5074762;28;20051;-70
2022/09/11 01:45:12;;;;;;;62.10;9.80;;;12.90;99.90;;;;;;5075115;28;20055;-70
2022/09/11 01:47:41;;;;;;;17.30;10.32;;;12.70;99.90;;;;;;5074378;28;20062;-70
2022/09/11 01:50:09;;;;;;;20.15;9.60;;;12.60;99.90;;;;;;5073053;28;20056;-70
2022/09/11 01:52:54;;;;;;;15.27;10.20;;;12.50;99.90;;;;;;5073295;28;20044;-70
2022/09/11 01:55:33;;;;;;;17.33;9.82;;;12.50;99.90;;;;;;5071552;28;20102;-70
2022/09/11 01:58:10;;;;;;;19.15;9.75;;;12.50;99.90;;;;;;5072992;28;20055;-70
2022/09/11 02:00:38;;;;;;;19.38;9.63;;;12.50;99.90;;;;;;5073695;28;20044;-70
2022/09/11 02:03:21;;;;;;;22.52;11.43;;;12.50;99.90;;;;;;5073052;28;20493;-70
2022/09/11 02:06:02;;;;;;;17.60;10.25;;;12.50;99.90;;;;;;5073665;28;20048;-70
2022/09/11 02:08:40;;;;;;;25.77;11.27;;;12.50;99.90;;;;;;5072884;28;20473;-70
2022/09/11 02:11:10;;;;;;;82.93;15.27;;;12.50;99.90;;;;;;5072114;28;20393;-70
2022/09/11 02:13:48;;;;;;;57.75;12.75;;;12.50;99.90;;;;;;5072786;28;20052;-70
2022/09/11 02:16:50;;;;;;;103.97;15.98;;;12.60;99.90;;;;;;5071808;28;20053;-70
2022/09/11 02:19:19;;;;;;;117.13;16.60;;;12.60;99.90;;;;;;5056218;28;20397;-70
2022/09/11 02:21:46;;;;;;;72.22;14.65;;;12.60;99.90;;;;;;5072729;28;20114;-71
2022/09/11 02:24:14;;;;;;;104.78;16.52;;;12.60;99.90;;;;;;5072603;28;20047;-70
2022/09/11 02:26:45;;;;;;;98.72;15.80;;;12.60;99.90;;;;;;5072643;28;20138;-70
2022/09/11 02:29:12;;;;;;;93.72;15.95;;;12.60;99.90;;;;;;5075116;28;20045;-70
2022/09/11 02:31:40;;;;;;;42.08;11.90;;;12.50;99.90;;;;;;5076334;28;20482;-70
2022/09/11 02:34:06;;;;;;;17.70;10.77;;;12.60;99.90;;;;;;5076852;28;20123;-70
2022/09/11 02:36:41;;;;;;;19.67;10.48;;;12.50;99.90;;;;;;5076300;28;20155;-70
2022/09/11 02:39:18;;;;;;;20.45;10.50;;;12.50;99.90;;;;;;5076821;28;20040;-70
2022/09/11 02:41:50;;;;;;;21.58;10.85;;;12.50;99.90;;;;;;5076221;28;20052;-70
2022/09/11 02:44:39;;;;;;;17.77;9.60;;;12.50;99.90;;;;;;5076130;28;20141;-70
2022/09/11 02:47:34;;;;;;;40.85;10.32;;;12.50;99.90;;;;;;5076649;28;20074;-70
2022/09/11 02:50:40;;;;;;;46.15;10.50;;;12.50;99.90;;;;;;5075417;28;20064;-70
2022/09/11 02:53:19;;;;;;;45.45;10.93;;;12.50;99.90;;;;;;5055034;28;20501;-70
2022/09/11 02:56:06;;;;;;;58.90;11.27;;;12.50;99.90;;;;;;5075655;28;20060;-70
2022/09/11 02:58:54;;;;;;;40.08;9.70;;;12.40;99.90;;;;;;5076680;28;20048;-70
2022/09/11 03:01:20;;;;;;;20.05;8.57;;;12.40;99.90;;;;;;5076402;28;20045;-70
2022/09/11 03:03:46;;;;;;;23.60;8.40;;;12.40;99.90;;;;;;5075336;28;20166;-70
2022/09/11 03:06:24;;;;;;;23.70;8.27;;;12.40;99.90;;;;;;5075776;28;20044;-70
2022/09/11 03:08:50;;;;;;;20.20;8.55;;;12.40;99.90;;;;;;5075511;28;20088;-70
2022/09/11 03:11:18;;;;;;;19.80;8.32;;;12.50;99.90;;;;;;5076467;28;20049;-70
2022/09/11 03:13:44;;;;;;;61.20;10.60;;;12.40;99.90;;;;;;5075563;28;20101;-70
2022/09/11 03:16:11;;;;;;;25.42;8.50;;;12.50;99.90;;;;;;5075920;28;20123;-69
2022/09/11 03:18:37;;;;;;;44.20;10.02;;;12.50;99.90;;;;;;5074770;28;20045;-70
2022/09/11 03:21:04;;;;;;;56.72;10.18;;;12.50;99.90;;;;;;5075244;28;20485;-70
2022/09/11 03:23:30;;;;;;;43.97;10.05;;;12.50;99.90;;;;;;5075392;28;20183;-70
2022/09/11 03:25:57;;;;;;;80.32;11.77;;;12.40;99.90;;;;;;5075433;28;20048;-70
2022/09/11 03:28:23;;;;;;;62.97;9.77;;;12.40;99.90;;;;;;5075319;28;20052;-70
2022/09/11 03:30:49;;;;;;;82.25;9.48;;;12.30;99.90;;;;;;5075914;28;20049;-70
2022/09/11 03:33:16;;;;;;;116.47;12.75;;;12.20;99.90;;;;;;5075063;28;20474;-70
2022/09/11 03:35:44;;;;;;;93.75;10.23;;;12.30;99.90;;;;;;5075650;28;20147;-70
2022/09/11 03:38:10;;;;;;;86.60;10.10;;;12.20;99.90;;;;;;5075245;28;20087;-69
2022/09/11 03:40:37;;;;;;;19.60;8.02;;;12.20;99.90;;;;;;5074666;28;20052;-70
2022/09/11 03:43:03;;;;;;;10.45;6.93;;;12.20;99.90;;;;;;5075001;28;20083;-70
2022/09/11 03:45:28;;;;;;;12.07;7.65;;;12.10;99.90;;;;;;5074717;28;20076;-70
2022/09/11 03:47:54;;;;;;;16.13;8.57;;;12.10;99.90;;;;;;5075009;28;20052;-70
2022/09/11 03:50:20;;;;;;;12.80;7.60;;;12.10;99.90;;;;;;5073939;28;20362;-70
2022/09/11 03:52:45;;;;;;;12.07;7.72;;;12.10;99.90;;;;;;5074796;28;20132;-70
2022/09/11 03:55:11;;;;;;;10.50;7.38;;;12.10;99.90;;;;;;5074946;28;20048;-70
2022/09/11 03:57:37;;;;;;;10.52;6.70;;;12.10;99.90;;;;;;5074996;28;20443;-70
2022/09/11 04:00:05;;;;;;;12.02;7.40;;;12.10;99.90;;;;;;5074302;28;20516;-70
2022/09/11 04:02:31;;;;;;;10.07;7.25;;;12.10;99.90;;;;;;5072939;28;20063;-70
2022/09/11 04:04:56;;;;;;;10.05;7.22;;;12.10;99.90;;;;;;5074600;28;20044;-70
2022/09/11 04:07:22;;;;;;;9.88;7.32;;;12.10;99.90;;;;;;5074498;28;20075;-70
2022/09/11 04:09:48;;;;;;;10.50;7.00;;;12.00;99.90;;;;;;5074581;28;20102;-70
2022/09/11 04:12:15;;;;;;;9.85;6.65;;;12.00;99.90;;;;;;5073192;28;20044;-70
2022/09/11 04:14:40;;;;;;;10.95;7.38;;;12.00;99.90;;;;;;5073473;28;20048;-70
2022/09/11 04:17:07;;;;;;;10.20;7.60;;;12.00;99.90;;;;;;5074344;28;20046;-70
2022/09/11 04:19:35;;;;;;;9.40;6.72;;;12.00;99.90;;;;;;5073414;28;20048;-70
2022/09/11 04:22:02;;;;;;;9.05;7.10;;;12.00;99.90;;;;;;5075030;28;20040;-70
2022/09/11 04:24:28;;;;;;;9.55;7.05;;;12.00;99.90;;;;;;5074705;28;20040;-70
2022/09/11 04:26:54;;;;;;;8.88;6.63;;;12.00;99.90;;;;;;5074138;28;20508;-70
2022/09/11 04:29:21;;;;;;;9.95;6.90;;;12.00;99.90;;;;;;5072878;28;20048;-70
2022/09/11 04:31:47;;;;;;;9.80;7.28;;;12.00;99.90;;;;;;5074102;28;20060;-70
2022/09/11 04:34:12;;;;;;;9.50;6.95;;;12.10;99.90;;;;;;5072747;28;20048;-70
2022/09/11 04:36:38;;;;;;;9.07;6.78;;;12.10;99.90;;;;;;5073985;28;20051;-70
2022/09/11 04:39:04;;;;;;;7.95;5.95;;;12.00;99.90;;;;;;5073982;28;20048;-70
2022/09/11 04:41:29;;;;;;;7.35;5.63;;;12.00;99.90;;;;;;5073641;28;20101;-70
2022/09/11 04:43:57;;;;;;;7.40;5.40;;;11.90;99.90;;;;;;5073716;28;20047;-70
2022/09/11 04:46:23;;;;;;;7.63;5.47;;;11.90;99.90;;;;;;5073774;28;20052;-70
2022/09/11 04:48:51;;;;;;;9.05;6.50;;;11.90;99.90;;;;;;5074287;28;20048;-70
2022/09/11 04:51:31;;;;;;;7.78;5.55;;;11.90;99.90;;;;;;5073903;28;20052;-70
2022/09/11 04:53:58;;;;;;;8.93;6.13;;;11.90;99.90;;;;;;5074757;28;20040;-70
2022/09/11 04:56:29;;;;;;;11.55;5.82;;;11.90;99.90;;;;;;5055892;28;20056;-70
2022/09/11 04:59:02;;;;;;;28.25;6.90;;;12.00;99.90;;;;;;5072838;28;20135;-70
2022/09/11 05:01:29;;;;;;;8.45;5.60;;;11.90;99.90;;;;;;5073097;28;20048;-70
2022/09/11 05:03:55;;;;;;;9.05;6.57;;;11.90;99.90;;;;;;5074071;28;20052;-70
2022/09/11 05:06:22;;;;;;;8.45;6.38;;;11.90;99.90;;;;;;5073928;28;20048;-70
2022/09/11 05:08:48;;;;;;;8.05;6.15;;;11.90;99.90;;;;;;5073482;28;20083;-70
2022/09/11 05:11:19;;;;;;;10.52;7.10;;;11.90;99.90;;;;;;5072360;28;20393;-70
2022/09/11 05:13:45;;;;;;;9.45;6.63;;;11.90;99.90;;;;;;5073485;28;20128;-70
2022/09/11 05:16:14;;;;;;;8.82;6.15;;;12.00;99.90;;;;;;5073927;28;20123;-70
2022/09/11 05:18:41;;;;;;;13.45;5.45;;;12.00;99.90;;;;;;5073378;28;20094;-70
2022/09/11 05:21:15;;;;;;;8.35;5.35;;;12.00;99.90;;;;;;5055688;28;20086;-70
2022/09/11 05:23:41;;;;;;;9.38;6.45;;;12.00;99.90;;;;;;5073272;28;20044;-70
2022/09/11 05:26:13;;;;;;;8.93;6.00;;;12.00;99.90;;;;;;5072312;28;20084;-69
2022/09/11 05:28:39;;;;;;;7.93;6.25;;;11.90;99.90;;;;;;5073594;28;20080;-70
2022/09/11 05:31:15;;;;;;;8.57;6.50;;;11.90;99.90;;;;;;5073533;28;20163;-70
2022/09/11 05:33:42;;;;;;;7.80;6.10;;;11.90;99.90;;;;;;5073237;28;20048;-70
2022/09/11 05:36:09;;;;;;;7.78;6.22;;;11.90;99.90;;;;;;5073623;28;20045;-70
2022/09/11 05:38:38;;;;;;;7.78;5.50;;;11.90;99.90;;;;;;5073061;28;20119;-70
2022/09/11 05:41:10;;;;;;;10.25;6.38;;;11.90;99.90;;;;;;5072957;28;20044;-70
2022/09/11 05:43:36;;;;;;;9.38;6.63;;;11.90;99.90;;;;;;5071856;28;20470;-70
2022/09/11 05:46:03;;;;;;;10.07;7.05;;;11.90;99.90;;;;;;5073118;28;20056;-70
2022/09/11 05:48:30;;;;;;;9.13;6.18;;;11.90;99.90;;;;;;5073023;28;20055;-70
2022/09/11 05:51:00;;;;;;;10.57;7.22;;;12.00;99.90;;;;;;5073026;28;20127;-70
2022/09/11 05:53:33;;;;;;;9.27;6.82;;;12.10;99.90;;;;;;5057255;28;20078;-70
2022/09/11 05:56:07;;;;;;;9.45;6.57;;;12.20;99.90;;;;;;5074720;28;20056;-70
2022/09/11 05:58:33;;;;;;;8.48;6.13;;;12.20;99.90;;;;;;5073232;28;20053;-70
2022/09/11 06:01:07;;;;;;;9.88;6.95;;;12.30;99.90;;;;;;5072828;28;20100;-70
2022/09/11 06:03:34;;;;;;;9.95;7.00;;;12.40;99.90;;;;;;5075039;28;20057;-70
2022/09/11 06:06:01;;;;;;;10.27;6.80;;;12.40;99.90;;;;;;5076906;28;20446;-70
2022/09/11 06:08:28;;;;;;;9.10;6.72;;;12.40;99.90;;;;;;5075901;28;20080;-70
2022/09/11 06:10:54;;;;;;;9.00;6.80;;;12.50;99.90;;;;;;5076447;28;20545;-70
2022/09/11 06:13:21;;;;;;;10.45;7.20;;;12.60;99.90;;;;;;5076807;28;20056;-70
2022/09/11 06:15:48;;;;;;;10.82;7.88;;;12.60;99.90;;;;;;5076414;28;20566;-70
2022/09/11 06:18:14;;;;;;;10.65;7.40;;;12.70;99.90;;;;;;5076595;28;20079;-70
2022/09/11 06:20:40;;;;;;;9.98;7.07;;;12.90;99.90;;;;;;5076619;28;20080;-70
2022/09/11 06:23:09;;;;;;;11.13;7.72;;;13.00;99.90;;;;;;5077004;28;20473;-70
2022/09/11 06:25:35;;;;;;;11.45;8.05;;;13.10;99.90;;;;;;5076517;28;20075;-70
2022/09/11 06:28:01;;;;;;;9.68;7.03;;;13.20;99.90;;;;;;5076434;28;20049;-70
2022/09/11 06:30:27;;;;;;;11.52;7.68;;;13.30;99.90;;;;;;5076327;28;20043;-70
2022/09/11 06:32:55;;;;;;;10.25;7.60;;;13.40;99.90;;;;;;5076422;28;20037;-70
2022/09/11 06:35:22;;;;;;;11.75;8.23;;;13.50;99.90;;;;;;5076038;28;20485;-70
2022/09/11 06:37:48;;;;;;;10.07;7.45;;;13.60;99.90;;;;;;5076287;28;20048;-70
2022/09/11 06:40:14;;;;;;;9.88;7.40;;;13.70;99.90;;;;;;5075495;28;20082;-70
2022/09/11 06:42:39;;;;;;;11.10;7.43;;;13.80;99.90;;;;;;5059349;28;20138;-70
2022/09/11 06:45:07;;;;;;;9.80;7.38;;;13.80;99.90;;;;;;5058552;28;20119;-70
2022/09/11 06:47:33;;;;;;;10.10;7.55;;;13.90;99.90;;;;;;5074941;28;20127;-70
2022/09/11 06:49:58;;;;;;;10.35;7.90;;;14.00;99.90;;;;;;5074944;28;20079;-70
2022/09/11 06:52:24;;;;;;;9.65;7.57;;;14.20;99.90;;;;;;5075958;28;20476;-70
2022/09/11 06:54:50;;;;;;;9.68;7.63;;;14.30;99.90;;;;;;5075893;28;20040;-70
2022/09/11 06:57:15;;;;;;;11.50;8.05;;;14.30;99.90;;;;;;5075586;28;20083;-69
2022/09/11 06:59:42;;;;;;;10.80;8.15;;;14.40;99.90;;;;;;5075425;28;20144;-64
2022/09/11 07:02:10;;;;;;;10.45;8.32;;;14.50;99.90;;;;;;5075773;28;20056;-63
2022/09/11 07:04:36;;;;;;;12.43;9.27;;;14.60;99.90;;;;;;5076208;28;20040;-63
2022/09/11 07:07:02;;;;;;;10.13;8.32;;;14.70;99.90;;;;;;5075681;28;20098;-65
2022/09/11 07:09:27;;;;;;;11.13;8.07;;;14.80;99.90;;;;;;5076400;28;20051;-66
2022/09/11 07:11:53;;;;;;;12.00;8.23;;;15.00;99.90;;;;;;5076144;28;20457;-65
2022/09/11 07:14:22;;;;;;;10.05;7.88;;;15.10;99.90;;;;;;5074680;28;20040;-65
2022/09/11 07:16:54;;;;;;;10.80;7.90;;;15.20;99.90;;;;;;5075710;28;20041;-65
2022/09/11 07:19:21;;;;;;;10.65;7.93;;;15.40;99.90;;;;;;5075566;28;20067;-65
2022/09/11 07:21:46;;;;;;;10.93;7.82;;;15.40;99.90;;;;;;5074442;28;20362;-65
2022/09/11 07:24:12;;;;;;;10.80;8.80;;;15.50;99.90;;;;;;5075314;28;20135;-65
2022/09/11 07:26:37;;;;;;;11.45;8.18;;;15.60;99.90;;;;;;5075318;28;20044;-65
2022/09/11 07:29:03;;;;;;;12.80;9.18;;;15.70;99.90;;;;;;5075558;28;20127;-65
2022/09/11 07:31:31;;;;;;;10.98;8.35;;;15.80;99.90;;;;;;5075803;28;20052;-65
2022/09/11 07:33:58;;;;;;;11.82;9.77;;;15.90;99.90;;;;;;5075253;28;20040;-65
2022/09/11 07:36:26;;;;;;;11.27;8.70;;;16.00;99.90;;;;;;5075231;28;20041;-65
2022/09/11 07:38:56;;;;;;;12.52;8.68;;;16.20;99.90;;;;;;5074387;28;20523;-65
2022/09/11 07:41:23;;;;;;;10.98;8.15;;;16.30;99.90;;;;;;5074758;28;20481;-65
2022/09/11 07:43:53;;;;;;;14.55;8.90;;;16.40;99.90;;;;;;5074935;28;20047;-65
2022/09/11 07:46:20;;;;;;;10.55;8.15;;;16.50;99.90;;;;;;5074965;28;20080;-65
2022/09/11 07:48:46;;;;;;;10.23;8.57;;;16.60;99.90;;;;;;5074416;28;20347;-65
2022/09/11 07:51:14;;;;;;;10.13;8.23;;;16.70;99.90;;;;;;5074842;28;20056;-63
2022/09/11 07:53:42;;;;;;;10.93;7.75;;;16.70;99.90;;;;;;5074798;28;20040;-66
2022/09/11 07:56:17;;;;;;;10.48;8.23;;;16.90;99.90;;;;;;5074747;28;20048;-65
2022/09/11 07:58:44;;;;;;;10.25;8.05;;;16.90;99.90;;;;;;5074673;28;20162;-65
2022/09/11 08:01:12;;;;;;;9.40;7.50;;;17.00;99.90;;;;;;5074496;28;20055;-65
2022/09/11 08:03:38;;;;;;;9.15;7.70;;;17.00;99.90;;;;;;5075187;28;20111;-65
2022/09/11 08:06:07;;;;;;;9.75;8.20;;;17.10;99.90;;;;;;5075043;28;20492;-65
2022/09/11 08:08:33;;;;;;;9.18;8.10;;;17.20;99.90;;;;;;5074722;28;20067;-65
2022/09/11 08:11:05;;;;;;;8.90;7.57;;;17.30;99.90;;;;;;5074372;28;20101;-65
2022/09/11 08:13:31;;;;;;;9.75;7.72;;;17.40;99.90;;;;;;5074449;28;20040;-66
2022/09/11 08:15:58;;;;;;;9.50;7.88;;;17.50;99.90;;;;;;5075052;28;20059;-65
2022/09/11 08:18:24;;;;;;;9.13;8.15;;;17.60;99.90;;;;;;5074144;28;20552;-66
2022/09/11 08:20:50;;;;;;;9.18;7.45;;;17.70;99.90;;;;;;5073745;28;20087;-65
2022/09/11 08:23:15;;;;;;;9.68;7.80;;;17.70;99.90;;;;;;5074057;28;20086;-65
2022/09/11 08:25:41;;;;;;;10.20;7.75;;;17.70;99.90;;;;;;5074084;28;20048;-65
2022/09/11 08:28:08;;;;;;;9.75;7.50;;;17.80;99.90;;;;;;5074705;28;20115;-65
2022/09/11 08:30:37;;;;;;;9.30;8.25;;;17.90;99.90;;;;;;5074521;28;20049;-65
2022/09/11 08:33:05;;;;;;;9.68;7.93;;;18.00;99.90;;;;;;5074248;28;20476;-65
2022/09/11 08:35:32;;;;;;;10.40;8.48;;;18.10;99.90;;;;;;5056101;28;20112;-64
2022/09/11 08:37:58;;;;;;;9.90;7.82;;;18.20;99.90;;;;;;5073928;28;20130;-64
2022/09/11 08:40:26;;;;;;;10.50;7.90;;;18.20;99.90;;;;;;5073913;28;20139;-64
2022/09/11 08:42:56;;;;;;;10.15;8.02;;;18.40;99.90;;;;;;5074542;28;20430;-64
2022/09/11 08:45:27;;;;;;;10.95;8.55;;;18.50;99.90;;;;;;5073749;28;20137;-64
2022/09/11 08:47:56;;;;;;;10.10;7.57;;;18.60;99.90;;;;;;5057374;28;20385;-64
2022/09/11 08:50:30;;;;;;;9.20;7.45;;;18.70;99.90;;;;;;5072520;28;20048;-64
2022/09/11 08:52:56;;;;;;;8.65;7.38;;;18.70;99.90;;;;;;5074718;28;20055;-64
2022/09/11 08:55:48;;;;;;;9.18;6.85;;;18.80;99.90;;;;;;5073971;28;20048;-64
2022/09/11 08:58:19;;;;;;;11.32;8.27;;;18.80;99.90;;;;;;5073533;28;20538;-65
2022/09/11 09:01:18;;;;;;;9.80;8.43;;;18.90;99.90;;;;;;5071853;28;20571;-64
2022/09/11 09:04:06;;;;;;;11.25;8.35;;;18.90;99.90;;;;;;5074534;28;20361;-64
2022/09/11 09:06:39;;;;;;;8.35;7.38;;;18.80;99.90;;;;;;5074204;28;20106;-65
2022/09/11 09:09:05;;;;;;;9.95;7.75;;;18.70;99.90;;;;;;5074124;28;20056;-64
2022/09/11 09:12:04;;;;;;;8.68;7.63;;;18.60;99.90;;;;;;5073368;28;20433;-64
2022/09/11 09:14:48;;;;;;;8.50;7.60;;;18.60;99.90;;;;;;5059085;28;20134;-66
2022/09/11 09:17:20;;;;;;;8.93;7.50;;;18.60;99.90;;;;;;5073311;28;20052;-65
2022/09/11 09:19:59;;;;;;;9.90;7.68;;;18.50;99.90;;;;;;5073245;28;20079;-65
2022/09/11 09:22:58;;;;;;;9.25;7.82;;;18.50;99.90;;;;;;5073323;28;20087;-65
2022/09/11 09:25:25;;;;;;;9.10;8.00;;;18.60;99.90;;;;;;5065604;28;20056;-65
2022/09/11 09:28:16;;;;;;;10.68;8.27;;;18.60;99.90;;;;;;5073964;28;20076;-65
2022/09/11 09:30:48;;;;;;;8.38;7.20;;;18.70;99.90;;;;;;5071960;28;20051;-66
2022/09/11 09:33:46;;;;;;;11.88;7.70;;;18.90;99.90;;;;;;5072449;28;20056;-65
2022/09/11 09:36:14;;;;;;;10.35;7.30;;;19.10;99.90;;;;;;5072551;28;20140;-65
2022/09/11 09:38:39;;;;;;;9.43;7.57;;;19.20;99.90;;;;;;5073051;28;20431;-65
2022/09/11 09:41:31;;;;;;;7.53;6.47;;;19.40;99.90;;;;;;5073111;28;20123;-65
2022/09/11 09:44:45;;;;;;;8.10;6.60;;;19.50;99.90;;;;;;5056633;28;20102;-65
2022/09/11 09:47:12;;;;;;;8.77;6.28;;;19.60;99.90;;;;;;5063412;28;20096;-65
2022/09/11 09:49:39;;;;;;;6.53;5.70;;;19.70;99.90;;;;;;5072936;28;20045;-65
2022/09/11 09:52:19;;;;;;;8.10;5.82;;;19.60;99.90;;;;;;5071704;28;20052;-65
2022/09/11 09:55:01;;;;;;;6.47;4.97;;;19.50;99.90;;;;;;5072891;28;20045;-65
2022/09/11 09:57:33;;;;;;;8.57;5.43;;;19.50;99.90;;;;;;5073695;28;20048;-65
2022/09/11 10:00:13;;;;;;;5.28;4.05;;;19.60;99.90;;;;;;5071820;28;20343;-65
2022/09/11 10:02:55;;;;;;;5.50;4.30;;;19.80;99.90;;;;;;5055181;28;20056;-65
2022/09/11 10:05:42;;;;;;;4.93;3.83;;;19.90;99.90;;;;;;5072538;28;20083;-66
2022/09/11 10:08:32;;;;;;;5.00;4.18;;;19.90;99.90;;;;;;5073047;28;20370;-66
2022/09/11 10:11:02;;;;;;;4.53;3.40;;;20.00;99.90;;;;;;5066417;28;20064;-65
2022/09/11 10:13:31;;;;;;;4.95;3.35;;;20.10;99.90;;;;;;5073321;28;20048;-65
2022/09/11 10:16:00;;;;;;;5.30;3.53;;;20.10;99.90;;;;;;5073050;28;20051;-65
2022/09/11 10:18:31;;;;;;;3.70;2.40;;;20.00;99.90;;;;;;5072749;28;20131;-64
2022/09/11 10:21:28;;;;;;;3.15;2.30;;;20.00;99.90;;;;;;5071547;28;20397;-65
2022/09/11 10:23:59;;;;;;;2.65;1.77;;;20.00;99.90;;;;;;5054044;28;20055;-65
2022/09/11 10:26:42;;;;;;;1.85;1.00;;;20.10;99.90;;;;;;5072812;28;20088;-65
2022/09/11 10:29:14;;;;;;;3.22;1.30;;;20.10;99.90;;;;;;5073231;28;20049;-65
2022/09/11 10:31:47;;;;;;;4.05;2.25;;;20.20;99.90;;;;;;5072777;28;20083;-65
2022/09/11 10:34:16;;;;;;;3.78;2.50;;;20.30;99.90;;;;;;5071584;28;20048;-65
2022/09/11 10:36:55;;;;;;;3.58;2.63;;;20.30;99.90;;;;;;5072587;28;20122;-65
2022/09/11 10:39:23;;;;;;;3.83;2.50;;;20.40;99.90;;;;;;5073116;28;20079;-65
2022/09/11 10:41:56;;;;;;;4.20;2.03;;;20.50;99.90;;;;;;5072544;28;20114;-66
2022/09/11 10:44:23;;;;;;;3.33;2.50;;;20.40;99.90;;;;;;5072805;28;20036;-64
2022/09/11 10:47:16;;;;;;;3.92;2.60;;;20.30;99.90;;;;;;5072296;28;20104;-64
2022/09/11 10:49:43;;;;;;;3.15;2.13;;;20.20;99.90;;;;;;5069163;28;20053;-64
2022/09/11 10:52:08;;;;;;;4.65;2.50;;;20.20;99.90;;;;;;5076112;28;20057;-64
2022/09/11 10:55:14;;;;;;;3.55;1.90;;;20.30;99.90;;;;;;5075924;28;20040;-64
2022/09/11 10:57:44;;;;;;;2.95;1.90;;;20.40;99.90;;;;;;5067907;28;20105;-65
2022/09/11 11:00:26;;;;;;;2.85;1.77;;;20.40;99.90;;;;;;5076595;28;20465;-65
2022/09/11 11:03:25;;;;;;;3.45;1.67;;;20.40;99.90;;;;;;5075614;28;20059;-65
2022/09/11 11:06:13;;;;;;;3.17;2.10;;;20.30;99.90;;;;;;5075835;28;20496;-65
2022/09/11 11:08:57;;;;;;;6.15;3.05;;;20.10;99.90;;;;;;5075727;28;20041;-65
2022/09/11 11:11:26;;;;;;;4.32;2.40;;;20.00;99.90;;;;;;5075999;28;20075;-65
2022/09/11 11:13:54;;;;;;;3.35;2.33;;;19.90;99.90;;;;;;5075672;28;20070;-65
2022/09/11 11:16:42;;;;;;;3.42;1.92;;;20.00;99.90;;;;;;5075711;28;20056;-65
2022/09/11 11:19:26;;;;;;;3.83;1.92;;;20.10;99.90;;;;;;5075555;28;20053;-65
2022/09/11 11:22:16;;;;;;;3.42;2.13;;;20.20;99.90;;;;;;5075109;28;20428;-65
2022/09/11 11:24:48;;;;;;;3.95;2.10;;;20.30;99.90;;;;;;5075445;28;20087;-65
2022/09/11 11:27:48;;;;;;;2.80;1.80;;;20.30;99.90;;;;;;5075385;28;20083;-65
2022/09/11 11:30:29;;;;;;;3.38;1.98;;;20.30;99.90;;;;;;5075627;28;20386;-65
2022/09/11 11:33:13;;;;;;;3.47;1.73;;;20.30;99.90;;;;;;5076070;28;20037;-65
2022/09/11 11:35:44;;;;;;;2.83;1.85;;;20.30;99.90;;;;;;5076062;28;20434;-65
2022/09/11 11:38:41;;;;;;;2.83;1.70;;;20.40;99.90;;;;;;5075366;28;20080;-65
2022/09/11 11:41:25;;;;;;;3.20;1.80;;;20.50;99.90;;;;;;5058065;28;20052;-65
2022/09/11 11:43:54;;;;;;;3.35;1.80;;;20.40;99.90;;;;;;5075031;28;20036;-65
2022/09/11 11:46:22;;;;;;;2.20;1.30;;;20.30;99.90;;;;;;5074119;28;20041;-65
2022/09/11 11:48:48;;;;;;;2.83;1.60;;;20.30;99.90;;;;;;5075066;28;20044;-64
2022/09/11 11:51:18;;;;;;;3.08;1.67;;;20.50;99.90;;;;;;5075795;28;20085;-65
2022/09/11 11:54:03;;;;;;;2.55;1.55;;;20.50;99.90;;;;;;5074993;28;20044;-65
2022/09/11 11:56:40;;;;;;;3.08;1.42;;;20.50;99.90;;;;;;5075458;28;20040;-64
2022/09/11 11:59:12;;;;;;;2.45;1.60;;;20.50;99.90;;;;;;5074864;28;20044;-65
2022/09/11 12:01:58;;;;;;;4.63;1.42;;;20.50;99.90;;;;;;5073089;28;20483;-65
2022/09/11 12:04:42;;;;;;;;;;;20.60;99.90;;;;;;5075171;28;20040;-65
2022/09/11 12:07:16;;;;;;;2.63;1.20;;;20.70;99.90;;;;;;5074733;28;20399;-64
2022/09/11 12:09:50;;;;;;;3.42;1.40;;;20.70;99.90;;;;;;5074739;28;20070;-64
2022/09/11 12:12:18;;;;;;;2.35;1.33;;;20.80;99.90;;;;;;5074653;28;20133;-65
2022/09/11 12:14:53;;;;;;;2.95;1.00;;;20.90;99.90;;;;;;5074521;28;20040;-65
2022/09/11 12:17:24;;;;;;;2.15;1.10;;;21.10;99.90;;;;;;5074494;28;20123;-65
2022/09/11 12:20:08;;;;;;;2.80;1.17;;;21.20;99.90;;;;;;5074781;28;20391;-65
2022/09/11 12:22:40;;;;;;;2.28;1.00;;;21.30;99.90;;;;;;5074176;28;20135;-65
2022/09/11 12:25:17;;;;;;;1.58;1.13;;;21.30;99.90;;;;;;5074171;28;20151;-65
2022/09/11 12:27:43;;;;;;;2.47;0.93;;;21.30;99.90;;;;;;5074548;28;20045;-65
2022/09/11 12:30:15;;;;;;;2.88;1.30;;;21.30;99.90;;;;;;5074166;28;20461;-65
2022/09/11 12:32:45;;;;;;;2.80;1.23;;;21.30;99.90;;;;;;5074197;28;20047;-64
2022/09/11 12:35:38;;;;;;;3.08;1.20;;;21.20;99.90;;;;;;5073164;28;20044;-65
2022/09/11 12:38:07;;;;;;;2.42;1.20;;;21.30;99.90;;;;;;5068229;28;20048;-65
2022/09/11 12:40:57;;;;;;;1.85;1.10;;;21.20;99.90;;;;;;5074447;28;20133;-65
2022/09/11 12:43:25;;;;;;;2.28;1.30;;;21.10;99.90;;;;;;5068838;28;20053;-65
2022/09/11 12:45:51;;;;;;;1.98;1.20;;;21.10;99.90;;;;;;5073927;28;20076;-65
2022/09/11 12:48:21;;;;;;;2.63;1.30;;;21.00;99.90;;;;;;5074440;28;20048;-65
2022/09/11 12:50:55;;;;;;;2.53;1.30;;;20.90;99.90;;;;;;5073787;28;20481;-65
2022/09/11 12:53:45;;;;;;;2.13;1.10;;;20.80;99.90;;;;;;5074671;28;20075;-65
2022/09/11 12:56:20;;;;;;;1.90;1.17;;;20.60;99.90;;;;;;5073823;28;20083;-65
2022/09/11 12:58:53;;;;;;;3.05;1.23;;;20.50;99.90;;;;;;5073047;28;20036;-65
2022/09/11 13:01:35;;;;;;;1.70;1.05;;;20.40;99.90;;;;;;5073488;28;20052;-65
2022/09/11 13:04:09;;;;;;;2.22;1.33;;;20.40;99.90;;;;;;5073638;28;20040;-65
2022/09/11 13:06:49;;;;;;;2.10;1.10;;;20.30;99.90;;;;;;5074190;28;20048;-64